Strona główna
METAR-TAF:

METAR-TAF

Lotnisko :

Derby, Australia

Szerokość geograficzna: 17-34-53S, Długość geograficzna: 123-49-42E, wysokość: 91 m

Aktualna obserwacja pogody

Raport powstał 23 minut temu, godzina 05:00 UTC
Wiatr 10 kt od zachodnio-południowy zachód, zmienny między zachodnio-południowy zachód i północno-północny zachód
Temperatura 42°C
Wilgotność 18%
Ciśnienie 1005 hPa
Widzialność 10 km lub więcej

METAR: YCIN 070500Z AUTO 25010KT 240V330 9999 // NCD 42/13 Q1005

czas: 13:23 (05:23 UTC)

Prognoza

Raport powstał 5 godziny i 16 minut temu, godzina 00:07 UTC
Prognoza ważna od 07 godzina 02 UTC do 07 godzina 14 UTC
Wiatr 8 kt od południowy zachód
Widzialność 10 km lub więcej
Brak chmur poniżej 1500 m i brak chmur cumulonimbus
Od 07 godzina 0600 UTC
Wiatr 12 kt od północny zachód
Widzialność 10 km lub więcej
Brak chmur poniżej 1500 m i brak chmur cumulonimbus

TAF: YCIN 070007Z 0702/0714 23008KT CAVOK FM070600 31012KT CAVOK

Obserwacja i prognoza pogody dla ponad 4000 lotnisk (raport METAR i TAF).

Dostępne stacje oznaczono żółtymi i czerwonymi punktami na mapie.

Najedź kursorem aby zobaczyć nazwę stacji.

Kliknij aby zobaczyć obserwacje i prognozy pogody.

Aby zmienić mapę: kliknij na zielony przycisk z czarnym krzyżykiem, aby powiększyć; na zielony przycisk z myślnikiem, aby pomniejszyć; na zielone strzałki, aby przejść do map sąsiednich.


METAR-TAF: